KIWA Airport Information

Runway Information
Runway 12C Length 10201 ft width 150 ft Elevation 1346 ft Threshold N/A Heading 136
Runway 30C Length 10201 ft Width 150 ft Elevation 1378 ft Threshold N/A Heading 316
Runway 12R Length 10401 ft width 150 ft Elevation 1339 ft Threshold N/A Heading 136
Runway 30L Length 10401 ft Width 150 ft Elevation 1372 ft Threshold N/A Heading 316
Runway 12L Length 9301 ft width 150 ft Elevation 1353 ft Threshold N/A Heading 136
Runway 30R Length 9301 ft Width 150 ft Elevation 1380 ft Threshold N/A Heading 316
Airport Frequencies
Type A/D Name PHOENIX AP Frequency 124.9 MHZ
Type ATIS Name ATIS Frequency 133.5 MHZ
Type AWOS Name AWOS 3 Frequency 133.5 MHZ
Type CLD Name CLNC DEL Frequency 128.25 MHZ
Type CTAF Name CTAF Frequency 120.6 MHZ
Type GND Name GATEWAY GN Frequency 128.25 MHZ
Type TWR Name GATEWAY TW Frequency 118.8 MHZ
Airport Navaids
Type VORTAC Name Willie Frequency 113300 KHZ
Airport Weather Information & NOTAM
ADDS - METARS form results

(0745 UTC 31 January 2023)
Data provider http://aviationweather.gov/metar/data/
 
METAR text: KIWA 310735Z AUTO 10006KT 10SM CLR 07/03 A2997 RMK AO2 T00660032
Conditions at: KIWA (CHANDLER/MESA , AZ, US) observed 0735 UTC 31 January 2023
Temperature: 6.6°C (44°F)
Dewpoint: 3.2°C (38°F) [RH = 79%]
Pressure (altimeter): 29.97 inches Hg (1015.0 mb)
Winds: from the E (100 degrees) at 7 MPH (6 knots; 3.1 m/s)
Visibility: 10 or more miles (16+ km)
Ceiling: at least 12,000 feet AGL
Clouds: sky clear below 12,000 feet AGL
Weather: automated observation with no human augmentation;
there may or may not be significant weather present at this time

METAR text: KIWA 310715Z AUTO 10006KT 10SM CLR 07/03 A2997 RMK AO2 T00680032
Conditions at: KIWA (CHANDLER/MESA , AZ, US) observed 0715 UTC 31 January 2023
Temperature: 6.8°C (44°F)
Dewpoint: 3.2°C (38°F) [RH = 78%]
Pressure (altimeter): 29.97 inches Hg (1015.0 mb)
Winds: from the E (100 degrees) at 7 MPH (6 knots; 3.1 m/s)
Visibility: 10 or more miles (16+ km)
Ceiling: at least 12,000 feet AGL
Clouds: sky clear below 12,000 feet AGL
Weather: automated observation with no human augmentation;
there may or may not be significant weather present at this time

METAR text: KIWA 310655Z AUTO 08006KT 10SM CLR 07/03 A2998 RMK AO2 T00680033
Conditions at: KIWA (CHANDLER/MESA , AZ, US) observed 0655 UTC 31 January 2023
Temperature: 6.8°C (44°F)
Dewpoint: 3.3°C (38°F) [RH = 78%]
Pressure (altimeter): 29.98 inches Hg (1015.3 mb)
Winds: from the E (80 degrees) at 7 MPH (6 knots; 3.1 m/s)
Visibility: 10 or more miles (16+ km)
Ceiling: at least 12,000 feet AGL
Clouds: sky clear below 12,000 feet AGL
Weather: automated observation with no human augmentation;
there may or may not be significant weather present at this time

Forecast for: KIWA (CHANDLER/MESA , AZ, US)
Text: KIWA 310530Z 3106/0106 10005KT P6SM FEW050 SCT100
Forecast period: 0600 to 1000 UTC 31 January 2023
Forecast type: FROM: standard forecast or significant change
Winds: from the E (100 degrees) at 6 MPH (5 knots; 2.6 m/s)
Visibility: 6 or more miles (10+ km)
Ceiling: at least 12,000 feet AGL
Clouds: few clouds at 5000 feet AGL
scattered clouds at 10000 feet AGL
Weather: no significant weather forecast for this period
Text: FM311000 11005KT P6SM VCSH SCT035 BKN045
Forecast period: 1000 to 2200 UTC 31 January 2023
Forecast type: FROM: standard forecast or significant change
Winds: from the ESE (110 degrees) at 6 MPH (5 knots; 2.6 m/s)
Visibility: 6 or more miles (10+ km)
Ceiling: 4500 feet AGL
Clouds: scattered clouds at 3500 feet AGL
broken clouds at 4500 feet AGL
Weather: VCSH  (showers in vicinity)
Text: TEMPO 3112/3116 5SM SHRA SCT025 BKN030
Forecast period: 1200 to 1600 UTC 31 January 2023
Forecast type: TEMPORARY: The following changes expected for less than half the time period
Visibility: 5 miles (8 km)
Ceiling: 3000 feet AGL
Clouds: scattered clouds at 2500 feet AGL
broken clouds at 3000 feet AGL
Weather: SHRA  (rain showers)
Text: FM312200 VRB05KT P6SM VCSH SCT040 BKN050 AMD LTD TO CLD VIS AND WIND TIL 311200
Forecast period: 2200 UTC 31 January 2023 to 0600 UTC 01 February 2023
Forecast type: FROM: standard forecast or significant change
Winds: variable direction winds at 6 MPH (5 knots; 2.6 m/s)
Visibility: 6 or more miles (10+ km)
Ceiling: 5000 feet AGL
Clouds: scattered clouds at 4000 feet AGL
broken clouds at 5000 feet AGL
Weather: VCSH  (showers in vicinity)